createdAt,value
2022-10-13T00:00:58.102Z,102278.22
2022-10-13T00:03:24.624Z,102283.06
2022-10-13T00:05:52.105Z,102278.09
2022-10-13T00:08:22.104Z,102285.22
2022-10-13T00:10:51.044Z,102286.25
2022-10-13T00:13:18.530Z,102270.16
2022-10-13T00:15:46.474Z,102282.28
2022-10-13T00:18:13.752Z,102278.16
2022-10-13T00:20:46.208Z,102276.03
2022-10-13T00:23:13.976Z,102265.16
2022-10-13T00:25:48.189Z,102257.19
2022-10-13T00:28:16.321Z,102267.53
2022-10-13T00:30:42.842Z,102271.69
2022-10-13T00:33:11.432Z,102277.84
2022-10-13T00:35:47.057Z,102272.84
2022-10-13T00:38:14.358Z,102267.38
2022-10-13T00:40:48.848Z,102266.53
2022-10-13T00:43:21.533Z,102268.84
2022-10-13T00:45:51.014Z,102264.53
2022-10-13T00:48:20.915Z,102279.50
2022-10-13T00:50:48.220Z,102268.03
2022-10-13T00:53:17.566Z,102275.31
2022-10-13T00:55:46.190Z,102273.50
2022-10-13T00:58:16.345Z,102282.28
2022-10-13T01:00:46.872Z,102280.66
2022-10-13T01:03:13.403Z,102282.63
2022-10-13T01:05:41.614Z,102277.81
2022-10-13T01:08:09.879Z,102273.50
2022-10-13T01:10:44.504Z,102271.16
2022-10-13T01:13:29.835Z,102267.47
2022-10-13T01:16:10.491Z,102261.50
2022-10-13T01:18:45.130Z,102262.34
2022-10-13T01:21:39.923Z,102267.00
2022-10-13T01:24:54.652Z,102258.03
2022-10-13T01:28:08.523Z,102256.22
2022-10-13T01:30:43.970Z,102256.88
2022-10-13T01:33:20.707Z,102258.06
2022-10-13T01:36:06.441Z,102246.59
2022-10-13T01:38:53.528Z,102249.75
2022-10-13T01:41:33.284Z,102243.78
2022-10-13T01:44:09.019Z,102249.75
2022-10-13T01:46:39.225Z,102243.78
2022-10-13T01:49:10.258Z,102228.84
2022-10-13T01:51:38.826Z,102231.31
2022-10-13T01:54:05.609Z,102239.78
2022-10-13T01:56:32.666Z,102236.78
2022-10-13T01:59:05.009Z,102246.09
2022-10-13T02:01:56.117Z,102238.44
2022-10-13T02:04:47.236Z,102231.44
2022-10-13T02:07:33.704Z,102232.09
2022-10-13T02:10:13.046Z,102217.97
2022-10-13T02:12:43.439Z,102219.31
2022-10-13T02:15:16.352Z,102207.31
2022-10-13T02:17:42.847Z,102213.47
2022-10-13T02:20:10.981Z,102203.00
2022-10-13T02:22:45.337Z,102195.19
2022-10-13T02:25:12.424Z,102196.53
2022-10-13T02:27:39.497Z,102190.06
2022-10-13T02:30:06.545Z,102192.91
2022-10-13T02:32:33.067Z,102185.09
2022-10-13T02:34:59.640Z,102179.16
2022-10-13T02:37:26.125Z,102165.53
2022-10-13T02:39:52.898Z,102165.84
2022-10-13T02:42:19.634Z,102156.41
2022-10-13T02:44:46.305Z,102168.03
2022-10-13T02:47:13.296Z,102163.72
2022-10-13T02:49:39.751Z,102178.97
2022-10-13T02:52:06.307Z,102178.66
2022-10-13T02:54:32.760Z,102169.50
2022-10-13T02:56:59.190Z,102157.03
2022-10-13T02:59:25.693Z,102153.34
2022-10-13T03:01:52.165Z,102160.19
2022-10-13T03:04:18.635Z,102172.13
2022-10-13T03:06:45.230Z,102172.94
2022-10-13T03:09:11.954Z,102167.63
2022-10-13T03:11:38.727Z,102171.13
2022-10-13T03:14:05.244Z,102168.47
2022-10-13T03:16:31.714Z,102157.47
2022-10-13T03:18:58.159Z,102153.31
2022-10-13T03:21:24.640Z,102165.81
2022-10-13T03:23:51.441Z,102163.47
2022-10-13T03:26:18.053Z,102159.16
2022-10-13T03:28:48.977Z,102150.34
2022-10-13T03:31:15.762Z,102155.66
2022-10-13T03:33:42.236Z,102156.16
2022-10-13T03:36:08.852Z,102162.97
2022-10-13T03:38:36.927Z,102164.63
2022-10-13T03:41:18.506Z,102163.63
2022-10-13T03:43:45.179Z,102154.81
2022-10-13T03:46:13.447Z,102158.78
2022-10-13T03:48:40.548Z,102155.13
2022-10-13T03:51:09.835Z,102158.78
2022-10-13T03:53:36.691Z,102156.94
2022-10-13T03:56:05.067Z,102154.28
2022-10-13T03:58:31.750Z,102153.81
2022-10-13T04:01:03.373Z,102148.84
2022-10-13T04:03:29.877Z,102153.00
2022-10-13T04:06:00.221Z,102156.03
2022-10-13T04:08:27.290Z,102152.25
2022-10-13T04:11:06.273Z,102144.75
2022-10-13T04:13:33.437Z,102145.78
2022-10-13T04:16:13.406Z,102141.59
2022-10-13T04:18:44.489Z,102153.09
2022-10-13T04:21:15.106Z,102140.13
2022-10-13T04:23:42.100Z,102139.31
2022-10-13T04:26:18.802Z,102145.81
2022-10-13T04:28:47.085Z,102136.81
2022-10-13T04:31:13.935Z,102132.50
2022-10-13T04:33:40.584Z,102130.66
2022-10-13T04:36:09.193Z,102130.16
2022-10-13T04:38:36.005Z,102124.84
2022-10-13T04:41:06.636Z,102113.09
2022-10-13T04:43:34.096Z,102116.25
2022-10-13T04:46:05.533Z,102115.41
2022-10-13T04:48:32.399Z,102118.06
2022-10-13T04:51:01.218Z,102121.75
2022-10-13T04:53:29.404Z,102123.75
2022-10-13T04:56:04.439Z,102145.97
2022-10-13T04:58:31.325Z,102130.22
2022-10-13T05:00:58.005Z,102128.56
2022-10-13T05:03:24.639Z,102129.56
2022-10-13T05:05:51.189Z,102127.22
2022-10-13T05:08:17.704Z,102116.78
2022-10-13T05:10:56.477Z,102116.59
2022-10-13T05:13:24.032Z,102117.63
2022-10-13T05:15:50.614Z,102120.28
2022-10-13T05:18:17.112Z,102116.13
2022-10-13T05:20:43.658Z,102114.28
2022-10-13T05:23:10.371Z,102123.94
2022-10-13T05:25:37.932Z,102123.94
2022-10-13T05:28:06.456Z,102135.56
2022-10-13T05:30:33.747Z,102126.75
2022-10-13T05:33:00.283Z,102122.44
2022-10-13T05:35:27.425Z,102118.94
2022-10-13T05:37:53.932Z,102111.16
2022-10-13T05:40:23.157Z,102126.91
2022-10-13T05:42:51.306Z,102125.94
2022-10-13T05:45:19.580Z,102121.44
2022-10-13T05:47:46.138Z,102119.13
2022-10-13T05:50:12.753Z,102109.16
2022-10-13T05:52:39.642Z,102108.50
2022-10-13T05:55:11.064Z,102104.34
2022-10-13T05:57:42.090Z,102108.34
2022-10-13T06:00:14.108Z,102105.88
2022-10-13T06:02:52.230Z,102093.59
2022-10-13T06:05:21.414Z,102098.06
2022-10-13T06:07:48.196Z,102094.06
2022-10-13T06:10:15.480Z,102097.56
2022-10-13T06:12:42.008Z,102090.63
2022-10-13T06:15:09.045Z,102100.56
2022-10-13T06:17:39.403Z,102089.81
2022-10-13T06:20:08.037Z,102090.16
2022-10-13T06:22:35.610Z,102083.50
2022-10-13T06:25:02.704Z,102087.97
2022-10-13T06:27:29.216Z,102081.38
2022-10-13T06:29:55.763Z,102088.50
2022-10-13T06:32:22.648Z,102083.84
2022-10-13T06:34:49.809Z,102084.50
2022-10-13T06:37:16.296Z,102085.50
2022-10-13T06:39:42.770Z,102084.81
2022-10-13T06:42:09.240Z,102088.81
2022-10-13T06:44:35.701Z,102085.16
2022-10-13T06:47:03.497Z,102087.81
2022-10-13T06:49:30.029Z,102083.34
2022-10-13T06:51:56.691Z,102086.81
2022-10-13T06:54:23.194Z,102091.13
2022-10-13T06:56:49.676Z,102077.84
2022-10-13T06:59:16.155Z,102084.00
2022-10-13T07:01:42.631Z,102082.34
2022-10-13T07:04:09.635Z,102086.81
2022-10-13T07:06:36.137Z,102081.34
2022-10-13T07:09:07.301Z,102089.47
2022-10-13T07:11:34.840Z,102079.53
2022-10-13T07:16:33.213Z,102078.47
2022-10-13T07:18:59.654Z,102079.47
2022-10-13T07:21:26.381Z,102074.94
2022-10-13T07:23:52.893Z,102079.41
2022-10-13T07:26:19.533Z,102076.72
2022-10-13T07:28:46.221Z,102075.66
2022-10-13T07:31:15.698Z,102074.66
2022-10-13T07:33:44.934Z,102084.44
2022-10-13T07:36:13.312Z,102086.09
2022-10-13T07:38:40.327Z,102083.25
2022-10-13T07:41:09.238Z,102075.28
2022-10-13T07:43:36.156Z,102077.47
2022-10-13T07:46:06.773Z,102075.44
2022-10-13T07:48:34.051Z,102063.66
2022-10-13T07:51:08.028Z,102068.13
2022-10-13T07:53:35.534Z,102062.16
2022-10-13T07:56:03.401Z,102067.47
2022-10-13T07:58:29.896Z,102065.28
2022-10-13T08:00:58.097Z,102071.03
2022-10-13T08:03:26.991Z,102066.50
2022-10-13T08:05:54.060Z,102066.78
2022-10-13T08:08:21.979Z,102071.06
2022-10-13T08:10:48.995Z,102065.50
2022-10-13T08:13:15.683Z,102065.84
2022-10-13T08:15:43.795Z,102070.22
2022-10-13T08:18:11.814Z,102063.63
2022-10-13T08:20:43.934Z,102067.56
2022-10-13T08:23:11.707Z,102063.72
2022-10-13T08:25:39.234Z,102061.66
2022-10-13T08:28:06.994Z,102058.81
2022-10-13T08:30:33.751Z,102049.81
2022-10-13T08:33:00.265Z,102051.59
2022-10-13T08:35:29.169Z,102060.97
2022-10-13T08:37:57.757Z,102052.09
2022-10-13T08:40:24.321Z,102051.56
2022-10-13T08:42:51.188Z,102042.66
2022-10-13T08:45:52.247Z,102049.56
2022-10-13T08:48:19.709Z,102046.44
2022-10-13T08:50:49.887Z,102041.38
2022-10-13T08:53:28.283Z,102046.09
2022-10-13T08:56:17.640Z,102043.44
2022-10-13T08:58:44.282Z,102032.13
2022-10-13T09:01:10.650Z,102040.03
2022-10-13T09:04:08.502Z,102037.81
2022-10-13T09:06:49.813Z,102039.84
2022-10-13T09:09:18.440Z,102030.44
2022-10-13T09:11:50.051Z,102035.78
2022-10-13T09:14:31.798Z,102032.19
2022-10-13T09:17:19.050Z,102032.44
2022-10-13T09:19:58.565Z,102031.88
2022-10-13T09:22:27.299Z,102027.75
2022-10-13T09:25:11.720Z,102030.75
2022-10-13T09:27:45.405Z,102028.25
2022-10-13T09:30:26.463Z,102033.00
2022-10-13T09:33:19.130Z,102034.13
2022-10-13T09:35:48.561Z,102033.22
2022-10-13T09:38:18.423Z,102032.75
2022-10-13T09:40:57.989Z,102027.50
2022-10-13T09:43:34.827Z,102020.63
2022-10-13T09:46:11.243Z,102023.13
2022-10-13T09:48:42.366Z,102015.94
2022-10-13T09:51:32.419Z,102020.00
2022-10-13T09:53:59.064Z,102025.63
2022-10-13T09:56:49.386Z,102022.97
2022-10-13T09:59:27.760Z,102021.38
2022-10-13T10:01:56.554Z,102014.50
2022-10-13T10:04:30.006Z,102019.72
2022-10-13T10:06:56.504Z,102011.00
2022-10-13T10:09:38.700Z,102013.38
2022-10-13T10:12:06.359Z,102009.97
2022-10-13T10:14:36.313Z,102012.81
2022-10-13T10:17:05.460Z,102014.00
2022-10-13T10:19:56.774Z,102021.19
2022-10-13T10:22:47.262Z,102015.41
2022-10-13T10:25:37.879Z,102014.19
2022-10-13T10:28:28.621Z,102018.25
2022-10-13T10:31:13.750Z,102010.81
2022-10-13T10:33:52.084Z,102012.38
2022-10-13T10:36:48.998Z,102014.94
2022-10-13T10:39:59.978Z,102023.94
2022-10-13T10:42:51.969Z,102019.91
2022-10-13T10:45:25.129Z,102012.91
2022-10-13T10:47:56.687Z,102011.63
2022-10-13T10:50:24.221Z,102019.84
2022-10-13T10:53:15.803Z,102025.00
2022-10-13T10:56:00.946Z,102013.25
2022-10-13T10:58:30.110Z,102004.22
2022-10-13T11:01:06.410Z,102000.63
2022-10-13T11:03:40.703Z,101995.53
2022-10-13T11:06:12.870Z,101996.53
2022-10-13T11:08:42.886Z,101984.59
2022-10-13T11:11:33.422Z,102003.34
2022-10-13T11:14:24.923Z,101998.19
2022-10-13T11:17:06.575Z,102000.47
2022-10-13T11:19:40.205Z,102001.06
2022-10-13T11:22:06.594Z,101993.19
2022-10-13T11:24:41.826Z,101997.06
2022-10-13T11:27:08.235Z,101998.31
2022-10-13T11:29:43.931Z,101988.34
2022-10-13T11:32:25.786Z,101991.81
2022-10-13T11:35:10.366Z,101987.97
2022-10-13T11:38:17.621Z,101988.06
2022-10-13T11:41:19.667Z,101992.06
2022-10-13T11:44:00.881Z,101985.09
2022-10-13T11:46:50.525Z,101983.09
2022-10-13T11:49:53.207Z,101973.31
2022-10-13T11:52:55.155Z,101983.13
2022-10-13T11:55:42.705Z,101983.63
2022-10-13T11:58:15.887Z,101980.78
2022-10-13T12:01:01.242Z,101980.28
2022-10-13T12:03:33.441Z,101975.34
2022-10-13T12:06:04.528Z,101980.03
2022-10-13T12:08:33.703Z,101984.72
2022-10-13T12:11:03.015Z,101982.69
2022-10-13T12:13:32.807Z,101981.75
2022-10-13T12:16:03.500Z,101976.50
2022-10-13T12:18:33.993Z,101983.09
2022-10-13T12:21:04.837Z,101983.94
2022-10-13T12:23:32.781Z,101975.47
2022-10-13T12:26:00.163Z,101970.97
2022-10-13T12:28:30.947Z,101965.94
2022-10-13T12:30:59.877Z,101981.56
2022-10-13T12:33:35.315Z,101971.72
2022-10-13T12:36:13.981Z,101977.63
2022-10-13T12:38:52.192Z,101978.13
2022-10-13T12:41:27.526Z,101967.81
2022-10-13T12:43:55.595Z,101973.97
2022-10-13T12:46:48.305Z,101972.03
2022-10-13T12:49:24.231Z,101977.28
2022-10-13T12:51:58.623Z,101975.59
2022-10-13T12:54:34.011Z,101972.47
2022-10-13T12:57:05.904Z,101980.47
2022-10-13T12:59:34.148Z,101982.53
2022-10-13T13:02:03.717Z,101982.59
2022-10-13T13:04:43.204Z,101988.66
2022-10-13T13:07:29.791Z,101985.66
2022-10-13T13:10:22.514Z,101987.19
2022-10-13T13:12:50.867Z,101983.28
2022-10-13T13:15:36.596Z,101988.56
2022-10-13T13:18:42.468Z,101986.63
2022-10-13T13:21:12.473Z,101988.34
2022-10-13T13:23:39.291Z,101990.06
2022-10-13T13:26:15.132Z,101987.19
2022-10-13T13:28:50.826Z,101991.75
2022-10-13T13:31:19.305Z,101987.06
2022-10-13T13:33:46.616Z,101993.03
2022-10-13T13:36:19.343Z,101991.41
2022-10-13T13:38:45.860Z,101991.31
2022-10-13T13:41:13.201Z,101985.16
2022-10-13T13:43:41.251Z,101992.97
2022-10-13T13:46:16.085Z,101981.38
2022-10-13T13:48:42.754Z,101992.47
2022-10-13T13:51:12.007Z,101991.50
2022-10-13T13:53:38.800Z,101989.88
2022-10-13T13:56:05.543Z,101987.31
2022-10-13T13:58:32.006Z,101994.69
2022-10-13T14:01:01.279Z,101990.53
2022-10-13T14:03:27.751Z,101979.19
2022-10-13T14:05:54.178Z,101985.63
2022-10-13T14:08:20.667Z,101981.31
2022-10-13T14:10:47.169Z,101978.25
2022-10-13T14:13:13.661Z,101974.94
2022-10-13T14:15:40.152Z,101972.56
2022-10-13T14:18:06.683Z,101972.16
2022-10-13T14:20:33.853Z,101974.53
2022-10-13T14:23:00.331Z,101965.78
2022-10-13T14:25:26.829Z,101969.97
2022-10-13T14:27:53.294Z,101961.22
2022-10-13T14:30:19.765Z,101973.16
2022-10-13T14:32:46.221Z,101949.03
2022-10-13T14:35:12.674Z,101953.59
2022-10-13T14:37:39.634Z,101945.59
2022-10-13T14:40:06.735Z,101951.72
2022-10-13T14:42:33.207Z,101954.13
2022-10-13T14:44:59.728Z,101947.06
2022-10-13T14:47:29.117Z,101952.53
2022-10-13T14:49:55.565Z,101957.66
2022-10-13T14:52:22.043Z,101951.69
2022-10-13T14:54:48.511Z,101951.44
2022-10-13T14:57:16.267Z,101948.94
2022-10-13T14:59:43.260Z,101940.50
2022-10-13T15:02:10.975Z,101933.66
2022-10-13T15:04:37.670Z,101936.25
2022-10-13T15:07:04.687Z,101938.47
2022-10-13T15:09:45.033Z,101934.78
2022-10-13T15:12:18.556Z,101932.09
2022-10-13T15:14:45.324Z,101932.09
2022-10-13T15:17:11.784Z,101931.72
2022-10-13T15:19:38.456Z,101937.25
2022-10-13T15:22:04.907Z,101943.34
2022-10-13T15:24:31.391Z,101947.00
2022-10-13T15:26:57.875Z,101937.56
2022-10-13T15:29:24.402Z,101948.59
2022-10-13T15:31:50.860Z,101943.00
2022-10-13T15:34:17.357Z,101938.63
2022-10-13T15:36:43.818Z,101935.00
2022-10-13T15:39:10.991Z,101935.84
2022-10-13T15:41:37.465Z,101925.31
2022-10-13T15:44:03.968Z,101936.16
2022-10-13T15:46:31.529Z,101940.88
2022-10-13T15:48:59.872Z,101936.09
2022-10-13T15:51:27.088Z,101926.63
2022-10-13T15:53:55.199Z,101931.13
2022-10-13T15:56:22.077Z,101924.69
2022-10-13T15:58:48.543Z,101935.56
2022-10-13T16:01:15.321Z,101931.63
2022-10-13T16:03:42.620Z,101942.47
2022-10-13T16:06:12.120Z,101934.81
2022-10-13T16:08:39.930Z,101936.41
2022-10-13T16:11:15.673Z,101934.94
2022-10-13T16:13:45.442Z,101934.47
2022-10-13T16:16:11.927Z,101936.84
2022-10-13T16:18:40.194Z,101941.91
2022-10-13T16:21:20.057Z,101937.59
2022-10-13T16:23:47.902Z,101930.97
2022-10-13T16:26:15.986Z,101938.34
2022-10-13T16:28:42.653Z,101936.22
2022-10-13T16:31:15.392Z,101934.56
2022-10-13T16:33:43.638Z,101936.59
2022-10-13T16:36:14.522Z,101934.47
2022-10-13T16:38:41.720Z,101933.19
2022-10-13T16:41:11.883Z,101933.75
2022-10-13T16:43:38.603Z,101935.94
2022-10-13T16:46:05.439Z,101934.66
2022-10-13T16:48:32.750Z,101929.50
2022-10-13T16:51:00.730Z,101927.56
2022-10-13T16:53:27.183Z,101929.47
2022-10-13T16:55:53.697Z,101929.56
2022-10-13T16:58:20.163Z,101942.75
2022-10-13T17:00:46.795Z,101942.47
2022-10-13T17:03:13.391Z,101940.97
2022-10-13T17:05:39.870Z,101941.16
2022-10-13T17:08:06.539Z,101927.53
2022-10-13T17:10:34.582Z,101927.72
2022-10-13T17:13:01.380Z,101930.09
2022-10-13T17:15:27.814Z,101935.47
2022-10-13T17:17:54.431Z,101940.31
2022-10-13T17:20:20.912Z,101940.50
2022-10-13T17:22:47.400Z,101940.69
2022-10-13T17:25:13.981Z,101937.19
2022-10-13T17:27:40.543Z,101934.72
2022-10-13T17:30:07.535Z,101939.22
2022-10-13T17:32:38.462Z,101938.75
2022-10-13T17:35:06.371Z,101944.88
2022-10-13T17:37:32.964Z,101944.53
2022-10-13T17:39:59.434Z,101954.63
2022-10-13T17:42:26.084Z,101954.56
2022-10-13T17:44:52.565Z,101953.03
2022-10-13T17:47:19.438Z,101962.59
2022-10-13T17:49:46.205Z,101965.94
2022-10-13T17:52:12.716Z,101962.13
2022-10-13T17:54:39.219Z,101961.09
2022-10-13T17:57:05.686Z,101960.91
2022-10-13T17:59:32.246Z,101961.75
2022-10-13T18:01:58.811Z,101959.88
2022-10-13T18:04:25.502Z,101960.72
2022-10-13T18:06:52.951Z,101962.56
2022-10-13T18:09:23.206Z,101963.22
2022-10-13T18:11:51.574Z,101968.53
2022-10-13T18:14:23.464Z,101960.72
2022-10-13T18:16:51.614Z,101956.25
2022-10-13T18:19:18.583Z,101952.75
2022-10-13T18:21:45.091Z,101953.59
2022-10-13T18:24:12.106Z,101951.28
2022-10-13T18:26:39.215Z,101949.44
2022-10-13T18:29:07.668Z,101949.44
2022-10-13T18:31:36.723Z,101946.59
2022-10-13T18:34:06.482Z,101950.28
2022-10-13T18:36:35.991Z,101937.16
2022-10-13T18:39:07.839Z,101950.09
2022-10-13T18:41:35.819Z,101950.09
2022-10-13T18:44:03.909Z,101950.94
2022-10-13T18:46:32.075Z,101954.41
2022-10-13T18:48:58.518Z,101945.78
2022-10-13T18:51:25.698Z,101943.78
2022-10-13T18:53:52.353Z,101950.94
2022-10-13T18:56:24.358Z,101957.09
2022-10-13T18:58:57.039Z,101956.06
2022-10-13T19:01:27.901Z,101956.91
2022-10-13T19:03:54.444Z,101955.22
2022-10-13T19:06:26.736Z,101956.72
2022-10-13T19:09:00.828Z,101962.22
2022-10-13T19:11:28.580Z,101964.69
2022-10-13T19:13:55.115Z,101961.19
2022-10-13T19:16:24.122Z,101963.69
2022-10-13T19:18:51.507Z,101959.84
2022-10-13T19:21:20.503Z,101966.81
2022-10-13T19:23:49.279Z,101972.78
2022-10-13T19:26:19.630Z,101976.25
2022-10-13T19:28:46.930Z,101963.31
2022-10-13T19:31:21.433Z,101972.59
2022-10-13T19:33:49.184Z,101975.09
2022-10-13T19:36:24.558Z,101978.22
2022-10-13T19:38:51.471Z,101974.72
2022-10-13T19:41:18.675Z,101971.06
2022-10-13T19:43:45.343Z,101985.84
2022-10-13T19:46:12.095Z,101984.00
2022-10-13T19:48:38.670Z,101984.81
2022-10-13T19:51:07.068Z,101982.00
2022-10-13T19:53:34.595Z,101982.00
2022-10-13T19:56:01.354Z,101975.00
2022-10-13T19:58:27.874Z,101987.31
2022-10-13T20:00:54.383Z,101976.69
2022-10-13T20:03:21.151Z,101974.16
2022-10-13T20:05:47.803Z,101975.84
2022-10-13T20:08:14.274Z,101973.38
2022-10-13T20:10:41.856Z,101973.00
2022-10-13T20:13:09.552Z,101974.03
2022-10-13T20:15:42.079Z,101974.63
2022-10-13T20:18:10.127Z,101976.31
2022-10-13T20:20:37.231Z,101978.78
2022-10-13T20:23:03.854Z,101965.19
2022-10-13T20:25:30.451Z,101964.53
2022-10-13T20:27:57.009Z,101969.03
2022-10-13T20:30:23.563Z,101959.78
2022-10-13T20:32:50.022Z,101964.25
2022-10-13T20:35:16.633Z,101970.59
2022-10-13T20:37:43.144Z,101958.84
2022-10-13T20:40:09.850Z,101960.66
2022-10-13T20:42:36.300Z,101965.31
2022-10-13T20:45:03.056Z,101960.38
2022-10-13T20:47:29.527Z,101962.84
2022-10-13T20:49:55.981Z,101953.22
2022-10-13T20:52:22.597Z,101954.25
2022-10-13T20:54:49.123Z,101954.41
2022-10-13T20:57:15.560Z,101947.44
2022-10-13T20:59:42.267Z,101946.59
2022-10-13T21:02:12.802Z,101943.31
2022-10-13T21:04:39.280Z,101942.28
2022-10-13T21:07:05.777Z,101937.34
2022-10-13T21:09:32.227Z,101934.84
2022-10-13T21:11:58.667Z,101942.97
2022-10-13T21:14:25.180Z,101948.63
2022-10-13T21:16:51.652Z,101947.66
2022-10-13T21:19:18.303Z,101939.50
2022-10-13T21:21:44.778Z,101943.16
2022-10-13T21:24:11.305Z,101945.00
2022-10-13T21:26:37.955Z,101947.47
2022-10-13T21:29:04.537Z,101957.97
2022-10-13T21:31:31.058Z,101944.81
2022-10-13T21:33:58.010Z,101947.31
2022-10-13T21:36:27.564Z,101946.47
2022-10-13T21:38:59.383Z,101941.31
2022-10-13T21:41:26.580Z,101936.81
2022-10-13T21:43:54.221Z,101931.69
2022-10-13T21:46:24.048Z,101944.66
2022-10-13T21:48:53.595Z,101941.16
2022-10-13T21:51:23.074Z,101946.31
2022-10-13T21:53:54.775Z,101947.13
2022-10-13T21:56:22.280Z,101938.31
2022-10-13T21:58:49.149Z,101933.00
2022-10-13T22:01:19.846Z,101938.97
2022-10-13T22:03:47.639Z,101926.50
2022-10-13T22:06:19.103Z,101934.50
2022-10-13T22:08:48.305Z,101932.00
2022-10-13T22:11:15.530Z,101923.66
2022-10-13T22:13:42.260Z,101920.16
2022-10-13T22:16:12.485Z,101913.03
2022-10-13T22:18:38.998Z,101905.59
2022-10-13T22:21:09.104Z,101907.56
2022-10-13T22:23:35.593Z,101902.63
2022-10-13T22:26:02.269Z,101914.06
2022-10-13T22:28:32.282Z,101909.56
2022-10-13T22:31:09.437Z,101910.22
2022-10-13T22:33:37.809Z,101914.38
2022-10-13T22:36:12.196Z,101912.56
2022-10-13T22:38:38.722Z,101902.25
2022-10-13T22:41:06.608Z,101912.22
2022-10-13T22:43:34.039Z,101904.91
2022-10-13T22:46:02.043Z,101900.59
2022-10-13T22:48:28.884Z,101906.25
2022-10-13T22:50:55.353Z,101905.41
2022-10-13T22:53:21.995Z,101893.94
2022-10-13T22:55:48.596Z,101901.72
2022-10-13T22:58:15.045Z,101897.25
2022-10-13T23:00:41.578Z,101906.69
2022-10-13T23:03:08.139Z,101894.03
2022-10-13T23:05:34.639Z,101898.38
2022-10-13T23:08:01.130Z,101889.56
2022-10-13T23:10:27.753Z,101895.53
2022-10-13T23:12:54.177Z,101882.22
2022-10-13T23:15:20.647Z,101885.50
2022-10-13T23:17:47.240Z,101884.22
2022-10-13T23:20:13.729Z,101892.59
2022-10-13T23:22:40.204Z,101889.28
2022-10-13T23:25:07.084Z,101892.94
2022-10-13T23:27:33.633Z,101889.91
2022-10-13T23:30:00.131Z,101879.28
2022-10-13T23:32:26.588Z,101877.78
2022-10-13T23:34:53.069Z,101886.91
2022-10-13T23:37:20.010Z,101882.41
2022-10-13T23:39:46.709Z,101874.06
2022-10-13T23:42:13.181Z,101867.72
2022-10-13T23:44:39.662Z,101867.72
2022-10-13T23:47:06.121Z,101847.91
2022-10-13T23:49:32.561Z,101842.78
2022-10-13T23:51:59.047Z,101834.81
2022-10-13T23:54:25.505Z,101818.00
2022-10-13T23:56:51.949Z,101813.34
2022-10-13T23:59:18.426Z,101805.53
